createdAt,value
2022-10-18T00:02:06.427Z,12.10
2022-10-18T00:04:36.220Z,12.10
2022-10-18T00:07:08.171Z,12.10
2022-10-18T00:09:39.053Z,12.20
2022-10-18T00:12:09.452Z,12.10
2022-10-18T00:14:39.600Z,12.10
2022-10-18T00:17:20.485Z,12.10
2022-10-18T00:19:50.668Z,12.20
2022-10-18T00:22:23.715Z,12.10
2022-10-18T00:24:55.221Z,12.30
2022-10-18T00:27:24.493Z,12.30
2022-10-18T00:29:55.661Z,12.20
2022-10-18T00:32:31.056Z,12.30
2022-10-18T00:35:00.340Z,12.20
2022-10-18T00:37:29.487Z,12.20
2022-10-18T00:39:59.087Z,12.10
2022-10-18T00:42:33.106Z,12.00
2022-10-18T00:45:16.496Z,12.00
2022-10-18T00:47:52.038Z,11.90
2022-10-18T00:50:23.033Z,11.90
2022-10-18T00:52:57.448Z,11.80
2022-10-18T00:55:28.882Z,11.80
2022-10-18T00:57:59.689Z,11.80
2022-10-18T01:00:28.425Z,11.70
2022-10-18T01:03:04.897Z,11.70
2022-10-18T01:05:42.852Z,11.70
2022-10-18T01:08:58.211Z,11.60
2022-10-18T01:11:40.179Z,11.50
2022-10-18T01:14:21.111Z,11.40
2022-10-18T01:16:56.524Z,11.30
2022-10-18T01:19:50.964Z,11.30
2022-10-18T01:22:26.576Z,11.30
2022-10-18T01:25:05.797Z,11.20
2022-10-18T01:27:47.231Z,11.30
2022-10-18T01:30:47.230Z,11.20
2022-10-18T01:33:23.078Z,11.20
2022-10-18T01:35:56.077Z,11.20
2022-10-18T01:38:27.471Z,11.20
2022-10-18T01:40:58.613Z,11.20
2022-10-18T01:43:29.139Z,11.20
2022-10-18T01:46:01.858Z,11.10
2022-10-18T01:48:32.543Z,11.10
2022-10-18T01:51:04.576Z,11.10
2022-10-18T01:53:36.996Z,11.00
2022-10-18T01:56:39.677Z,11.10
2022-10-18T01:59:26.757Z,11.10
2022-10-18T02:02:08.019Z,11.00
2022-10-18T02:04:46.151Z,11.00
2022-10-18T02:07:26.288Z,11.10
2022-10-18T02:10:08.245Z,11.00
2022-10-18T02:13:03.395Z,11.00
2022-10-18T02:15:39.439Z,11.10
2022-10-18T02:18:14.979Z,11.00
2022-10-18T02:20:43.879Z,11.00
2022-10-18T02:23:19.192Z,10.90
2022-10-18T02:25:49.162Z,10.90
2022-10-18T02:28:18.359Z,10.90
2022-10-18T02:31:00.644Z,10.90
2022-10-18T02:33:45.674Z,10.90
2022-10-18T02:36:45.004Z,10.80
2022-10-18T02:39:38.927Z,10.80
2022-10-18T02:42:18.062Z,10.80
2022-10-18T02:45:06.623Z,10.80
2022-10-18T02:47:53.239Z,10.70
2022-10-18T02:50:58.166Z,10.70
2022-10-18T02:57:03.243Z,10.70
2022-10-18T03:00:22.627Z,10.60
2022-10-18T03:03:02.415Z,10.60
2022-10-18T03:05:51.871Z,10.60
2022-10-18T03:08:40.242Z,10.60
2022-10-18T03:11:29.932Z,10.50
2022-10-18T03:14:09.979Z,10.50
2022-10-18T03:16:59.425Z,10.50
2022-10-18T03:19:50.216Z,10.60
2022-10-18T03:22:37.385Z,10.60
2022-10-18T03:25:15.790Z,10.50
2022-10-18T03:27:58.124Z,10.50
2022-10-18T03:30:42.156Z,10.50
2022-10-18T03:33:18.727Z,10.50
2022-10-18T03:36:01.189Z,10.40
2022-10-18T03:39:12.016Z,10.40
2022-10-18T03:41:54.963Z,10.40
2022-10-18T03:47:33.584Z,10.40
2022-10-18T03:50:04.264Z,10.40
2022-10-18T03:52:34.196Z,10.40
2022-10-18T03:55:10.177Z,10.40
2022-10-18T03:57:43.957Z,10.30
2022-10-18T04:00:15.235Z,10.30
2022-10-18T04:02:54.913Z,10.40
2022-10-18T04:05:32.159Z,10.30
2022-10-18T04:08:06.691Z,10.30
2022-10-18T04:10:39.335Z,10.20
2022-10-18T04:13:10.989Z,10.20
2022-10-18T04:15:41.496Z,10.20
2022-10-18T04:18:11.430Z,10.10
2022-10-18T04:20:44.424Z,10.10
2022-10-18T04:23:15.092Z,10.10
2022-10-18T04:25:47.080Z,10.10
2022-10-18T04:28:17.236Z,10.10
2022-10-18T04:30:50.396Z,10.00
2022-10-18T04:33:23.560Z,10.00
2022-10-18T04:35:55.847Z,9.90
2022-10-18T04:38:27.369Z,9.90
2022-10-18T04:40:59.207Z,9.90
2022-10-18T04:43:28.966Z,9.80
2022-10-18T04:45:58.791Z,9.80
2022-10-18T04:48:29.442Z,9.70
2022-10-18T04:50:58.347Z,9.70
2022-10-18T04:53:30.007Z,9.70
2022-10-18T04:56:02.051Z,9.70
2022-10-18T04:58:30.687Z,9.70
2022-10-18T05:00:59.266Z,9.70
2022-10-18T05:03:31.847Z,9.70
2022-10-18T05:06:02.773Z,9.70
2022-10-18T05:08:37.577Z,9.70
2022-10-18T05:13:38.819Z,9.70
2022-10-18T05:16:08.481Z,9.70
2022-10-18T05:18:37.988Z,9.70
2022-10-18T05:21:08.181Z,9.70
2022-10-18T05:23:39.332Z,9.70
2022-10-18T05:26:10.707Z,9.70
2022-10-18T05:28:41.057Z,9.80
2022-10-18T05:31:12.416Z,9.80
2022-10-18T05:33:41.645Z,9.80
2022-10-18T05:36:12.426Z,9.80
2022-10-18T05:38:44.070Z,9.90
2022-10-18T05:41:15.758Z,10.00
2022-10-18T05:43:44.658Z,10.10
2022-10-18T05:46:15.319Z,10.20
2022-10-18T05:48:45.286Z,10.30
2022-10-18T05:51:14.226Z,10.30
2022-10-18T05:53:44.233Z,10.40
2022-10-18T05:56:14.653Z,10.50
2022-10-18T05:58:44.379Z,10.60
2022-10-18T06:01:14.198Z,10.60
2022-10-18T06:03:44.330Z,10.70
2022-10-18T06:06:17.792Z,10.80
2022-10-18T06:08:52.503Z,10.90
2022-10-18T06:11:23.696Z,10.90
2022-10-18T06:13:55.188Z,11.10
2022-10-18T06:16:31.261Z,11.20
2022-10-18T06:19:05.939Z,11.30
2022-10-18T06:21:38.871Z,11.40
2022-10-18T06:24:10.438Z,11.60
2022-10-18T06:26:45.261Z,11.60
2022-10-18T06:29:15.030Z,11.80
2022-10-18T06:31:46.421Z,11.90
2022-10-18T06:34:17.762Z,12.00
2022-10-18T06:36:47.151Z,12.10
2022-10-18T06:39:18.158Z,12.20
2022-10-18T06:41:52.963Z,12.30
2022-10-18T06:44:27.119Z,12.50
2022-10-18T06:47:00.191Z,12.60
2022-10-18T06:49:32.330Z,12.60
2022-10-18T06:52:08.524Z,12.70
2022-10-18T06:54:45.506Z,12.70
2022-10-18T06:57:27.740Z,12.70
2022-10-18T07:00:05.534Z,12.80
2022-10-18T07:02:57.371Z,12.90
2022-10-18T07:05:48.726Z,12.90
2022-10-18T07:08:28.351Z,13.00
2022-10-18T07:11:10.809Z,12.90
2022-10-18T07:14:05.465Z,13.00
2022-10-18T07:16:53.422Z,13.20
2022-10-18T07:26:16.950Z,14.30
2022-10-18T08:51:46.731Z,17.10
2022-10-18T09:40:40.649Z,17.60
2022-10-18T09:43:15.103Z,17.70
2022-10-18T09:45:46.034Z,17.80
2022-10-18T09:48:19.089Z,17.80
2022-10-18T10:10:49.176Z,17.70
2022-10-18T10:13:23.745Z,17.90
2022-10-18T10:32:14.144Z,18.10
2022-10-18T10:37:37.618Z,18.80
2022-10-18T10:40:22.073Z,19.70
2022-10-18T10:43:12.700Z,19.70
2022-10-18T10:46:02.800Z,20.00
2022-10-18T10:48:35.230Z,20.10
2022-10-18T10:51:06.740Z,20.10
2022-10-18T10:53:46.865Z,20.20
2022-10-18T10:56:19.151Z,20.80
2022-10-18T10:58:47.162Z,20.80
2022-10-18T11:01:25.137Z,21.30
2022-10-18T11:03:56.403Z,21.50
2022-10-18T11:06:51.356Z,21.10
2022-10-18T11:09:42.873Z,21.30
2022-10-18T11:12:22.154Z,21.20
2022-10-18T11:14:58.442Z,20.90
2022-10-18T11:17:33.732Z,20.30
2022-10-18T11:20:19.762Z,20.00
2022-10-18T11:23:03.139Z,19.60
2022-10-18T11:40:21.450Z,17.70
2022-10-18T11:42:57.037Z,16.90
2022-10-18T11:45:47.579Z,16.50
2022-10-18T11:48:42.927Z,16.20
2022-10-18T11:51:25.569Z,16.00
2022-10-18T11:54:11.771Z,15.70
2022-10-18T11:56:47.039Z,15.70
2022-10-18T11:59:29.983Z,15.60
2022-10-18T12:02:20.780Z,15.50
2022-10-18T12:05:05.288Z,15.40
2022-10-18T12:07:49.713Z,15.20
2022-10-18T12:10:31.554Z,15.20
2022-10-18T12:13:21.936Z,15.10
2022-10-18T12:15:53.824Z,15.20
2022-10-18T12:18:27.450Z,15.20
2022-10-18T12:20:58.696Z,15.30
2022-10-18T12:23:37.914Z,15.20
2022-10-18T12:26:10.022Z,15.10
2022-10-18T12:28:48.823Z,15.20
2022-10-18T12:31:23.874Z,15.30
2022-10-18T12:33:59.571Z,15.30
2022-10-18T12:37:28.486Z,15.40
2022-10-18T12:43:42.605Z,15.50
2022-10-18T12:46:14.527Z,15.40
2022-10-18T12:48:58.095Z,15.40
2022-10-18T12:51:39.043Z,15.50
2022-10-18T12:54:13.751Z,15.40
2022-10-18T12:56:57.463Z,15.50
2022-10-18T13:00:19.273Z,15.40
2022-10-18T13:03:32.593Z,15.50
2022-10-18T13:14:29.791Z,15.70
2022-10-18T13:17:14.188Z,15.50
2022-10-18T13:23:39.604Z,15.40
2022-10-18T13:26:59.175Z,15.30
2022-10-18T13:30:16.218Z,15.40
2022-10-18T13:32:59.872Z,15.60
2022-10-18T13:36:12.912Z,15.70
2022-10-18T13:39:08.007Z,15.80
2022-10-18T13:42:12.088Z,15.90
2022-10-18T13:44:41.884Z,15.70
2022-10-18T13:47:17.358Z,15.80
2022-10-18T13:50:11.985Z,15.80
2022-10-18T13:53:17.319Z,15.60
2022-10-18T13:56:12.404Z,15.60
2022-10-18T13:58:59.384Z,15.60
2022-10-18T14:01:54.833Z,15.50
2022-10-18T14:04:42.508Z,15.40
2022-10-18T14:07:13.350Z,15.50
2022-10-18T14:09:56.927Z,15.60
2022-10-18T14:12:43.793Z,15.50
2022-10-18T14:15:19.235Z,15.60
2022-10-18T14:17:53.377Z,15.50
2022-10-18T14:20:29.864Z,15.40
2022-10-18T14:23:06.134Z,15.40
2022-10-18T14:25:37.780Z,15.40
2022-10-18T14:28:16.313Z,15.40
2022-10-18T14:30:59.183Z,15.40
2022-10-18T14:33:31.155Z,15.40
2022-10-18T14:40:14.059Z,15.40
2022-10-18T14:42:50.842Z,15.30
2022-10-18T14:45:29.695Z,15.30
2022-10-18T14:48:32.426Z,15.40
2022-10-18T14:51:06.443Z,15.40
2022-10-18T14:53:55.925Z,15.40
2022-10-18T14:56:32.357Z,15.50
2022-10-18T14:59:14.890Z,15.50
2022-10-18T15:02:02.538Z,15.50
2022-10-18T15:07:36.653Z,15.70
2022-10-18T15:10:28.089Z,15.70
2022-10-18T15:13:10.979Z,15.70
2022-10-18T15:15:42.058Z,15.70
2022-10-18T15:18:28.465Z,15.70
2022-10-18T15:21:29.251Z,15.60
2022-10-18T15:24:28.903Z,15.60
2022-10-18T15:27:16.911Z,15.50
2022-10-18T15:29:50.437Z,15.40
2022-10-18T15:32:26.591Z,15.30
2022-10-18T15:35:09.447Z,15.20
2022-10-18T15:37:44.110Z,15.20
2022-10-18T15:40:39.345Z,15.10
2022-10-18T15:43:42.125Z,15.10
2022-10-18T15:46:32.494Z,15.00
2022-10-18T15:49:30.376Z,14.90
2022-10-18T15:52:38.492Z,14.90
2022-10-18T15:55:57.519Z,14.80
2022-10-18T15:58:29.063Z,14.70
2022-10-18T16:01:08.202Z,14.60
2022-10-18T16:03:42.859Z,14.50
2022-10-18T16:06:26.308Z,14.50
2022-10-18T16:09:11.396Z,14.40
2022-10-18T16:11:54.306Z,14.40
2022-10-18T16:14:38.121Z,14.40
2022-10-18T16:17:18.487Z,14.30
2022-10-18T16:19:51.393Z,14.30
2022-10-18T16:22:23.250Z,14.30
2022-10-18T16:24:59.328Z,14.20
2022-10-18T16:27:32.352Z,14.20
2022-10-18T16:30:10.705Z,14.20
2022-10-18T16:32:43.662Z,14.20
2022-10-18T16:35:15.499Z,14.20
2022-10-18T16:37:48.945Z,14.20
2022-10-18T16:40:27.133Z,14.20
2022-10-18T16:42:56.225Z,14.20
2022-10-18T16:45:26.255Z,14.20
2022-10-18T16:47:58.854Z,14.10
2022-10-18T16:50:30.873Z,14.20
2022-10-18T16:53:02.288Z,14.20
2022-10-18T16:55:35.041Z,14.20
2022-10-18T16:58:04.326Z,14.20
2022-10-18T17:00:34.784Z,14.10
2022-10-18T17:03:07.322Z,14.10
2022-10-18T17:05:36.721Z,14.10
2022-10-18T17:08:08.567Z,14.00
2022-10-18T17:10:39.638Z,14.00
2022-10-18T17:13:11.047Z,14.00
2022-10-18T17:15:43.415Z,14.00
2022-10-18T17:18:15.817Z,13.90
2022-10-18T17:20:46.286Z,13.90
2022-10-18T17:23:17.490Z,13.90
2022-10-18T17:26:04.868Z,13.90
2022-10-18T17:28:40.126Z,13.90
2022-10-18T17:31:14.925Z,13.90
2022-10-18T17:33:51.039Z,13.90
2022-10-18T17:36:22.904Z,13.90
2022-10-18T17:38:57.001Z,13.80
2022-10-18T17:41:30.762Z,13.70
2022-10-18T17:44:03.989Z,13.70
2022-10-18T17:46:45.916Z,13.60
2022-10-18T17:49:27.855Z,13.40
2022-10-18T17:52:06.034Z,13.50
2022-10-18T17:54:54.727Z,13.40
2022-10-18T17:57:31.619Z,13.40
2022-10-18T18:00:08.388Z,13.50
2022-10-18T18:02:50.623Z,13.40
2022-10-18T18:06:15.298Z,13.40
2022-10-18T18:11:34.886Z,13.30
2022-10-18T18:14:18.468Z,13.20
2022-10-18T18:16:59.837Z,13.20
2022-10-18T18:19:36.746Z,13.30
2022-10-18T18:22:24.205Z,13.30
2022-10-18T18:25:01.318Z,13.30
2022-10-18T18:27:51.824Z,13.40
2022-10-18T18:30:32.575Z,13.40
2022-10-18T18:33:09.043Z,13.40
2022-10-18T18:35:47.944Z,13.40
2022-10-18T18:38:34.428Z,13.40
2022-10-18T18:41:09.442Z,13.30
2022-10-18T18:43:44.256Z,13.30
2022-10-18T18:46:15.420Z,13.40
2022-10-18T18:48:52.492Z,13.40
2022-10-18T18:51:27.869Z,13.40
2022-10-18T18:54:05.855Z,13.40
2022-10-18T18:56:36.586Z,13.30
2022-10-18T18:59:09.162Z,13.30
2022-10-18T19:01:41.614Z,13.30
2022-10-18T19:04:14.823Z,13.30
2022-10-18T19:06:46.741Z,13.30
2022-10-18T19:09:21.917Z,13.30
2022-10-18T19:11:53.256Z,13.30
2022-10-18T19:14:25.161Z,13.30
2022-10-18T19:16:57.630Z,13.30
2022-10-18T19:19:29.996Z,13.30
2022-10-18T19:22:03.990Z,13.20
2022-10-18T19:24:36.190Z,13.20
2022-10-18T19:27:08.764Z,13.20
2022-10-18T19:29:41.305Z,13.20
2022-10-18T19:32:13.441Z,13.20
2022-10-18T19:34:43.506Z,13.20
2022-10-18T19:37:12.631Z,13.30
2022-10-18T19:39:43.299Z,13.30
2022-10-18T19:42:18.577Z,13.30
2022-10-18T19:44:51.194Z,13.30
2022-10-18T19:47:20.663Z,13.30
2022-10-18T19:49:49.572Z,13.30
2022-10-18T19:52:18.058Z,13.30
2022-10-18T19:54:51.010Z,13.30
2022-10-18T19:57:19.499Z,13.30
2022-10-18T19:59:47.972Z,13.30
2022-10-18T20:02:19.486Z,13.30
2022-10-18T20:04:48.214Z,13.30
2022-10-18T20:07:17.602Z,13.30
2022-10-18T20:09:48.112Z,13.30
2022-10-18T20:12:16.510Z,13.30
2022-10-18T20:14:46.309Z,13.30
2022-10-18T20:17:17.340Z,13.30
2022-10-18T20:19:51.851Z,13.20
2022-10-18T20:22:21.845Z,13.20
2022-10-18T20:25:03.387Z,13.10
2022-10-18T20:27:37.403Z,13.10
2022-10-18T20:30:11.865Z,13.00
2022-10-18T20:32:45.117Z,12.90
2022-10-18T20:35:27.528Z,12.80
2022-10-18T20:38:01.127Z,12.80
2022-10-18T20:40:41.154Z,12.80
2022-10-18T20:43:15.542Z,12.70
2022-10-18T20:45:47.392Z,12.70
2022-10-18T20:48:21.325Z,12.60
2022-10-18T20:50:56.919Z,12.60
2022-10-18T20:53:31.558Z,12.60
2022-10-18T20:56:24.138Z,12.60
2022-10-18T20:59:08.490Z,12.50
2022-10-18T21:01:39.723Z,12.50
2022-10-18T21:04:11.753Z,12.50
2022-10-18T21:06:45.232Z,12.60
2022-10-18T21:09:16.699Z,12.60
2022-10-18T21:11:52.044Z,12.70
2022-10-18T21:14:57.551Z,12.70
2022-10-18T21:17:35.585Z,12.70
2022-10-18T21:20:10.891Z,12.70
2022-10-18T21:22:51.929Z,12.60
2022-10-18T21:25:38.873Z,12.60
2022-10-18T21:28:44.968Z,12.60
2022-10-18T21:31:26.365Z,12.50
2022-10-18T21:34:14.427Z,12.50
2022-10-18T21:36:54.791Z,12.50
2022-10-18T21:39:36.100Z,12.50
2022-10-18T21:42:20.647Z,12.50
2022-10-18T21:48:38.087Z,12.50
2022-10-18T21:51:43.684Z,12.50
2022-10-18T21:54:18.179Z,12.50
2022-10-18T21:56:51.882Z,12.50
2022-10-18T21:59:25.539Z,12.40
2022-10-18T22:02:04.163Z,12.40
2022-10-18T22:04:36.880Z,12.40
2022-10-18T22:07:06.406Z,12.40
2022-10-18T22:09:35.354Z,12.40
2022-10-18T22:12:03.652Z,12.40
2022-10-18T22:14:34.133Z,12.60
2022-10-18T22:17:06.423Z,12.60
2022-10-18T22:19:34.954Z,12.60
2022-10-18T22:22:04.310Z,12.70
2022-10-18T22:27:09.151Z,12.70
2022-10-18T22:29:37.955Z,12.70
2022-10-18T22:32:09.577Z,12.80
2022-10-18T22:34:38.164Z,12.70
2022-10-18T22:37:08.296Z,12.80
2022-10-18T22:39:37.129Z,12.80
2022-10-18T22:42:06.584Z,12.70
2022-10-18T22:44:35.306Z,12.70
2022-10-18T22:47:04.495Z,12.80
2022-10-18T22:49:34.739Z,12.80
2022-10-18T22:52:06.832Z,12.90
2022-10-18T22:54:37.049Z,12.80
2022-10-18T22:57:05.617Z,12.70
2022-10-18T22:59:34.608Z,12.70
2022-10-18T23:02:04.638Z,12.60
2022-10-18T23:04:34.471Z,12.60
2022-10-18T23:07:05.288Z,12.60
2022-10-18T23:09:34.383Z,12.50
2022-10-18T23:12:02.778Z,12.50
2022-10-18T23:14:32.454Z,12.50
2022-10-18T23:17:00.900Z,12.50
2022-10-18T23:19:30.755Z,12.40
2022-10-18T23:21:59.053Z,12.40
2022-10-18T23:24:28.759Z,12.30
2022-10-18T23:26:57.096Z,12.20
2022-10-18T23:29:25.276Z,12.10
2022-10-18T23:31:54.035Z,11.90
2022-10-18T23:34:25.129Z,11.80
2022-10-18T23:36:53.709Z,11.60
2022-10-18T23:39:23.015Z,11.40
2022-10-18T23:41:52.918Z,11.20
2022-10-18T23:44:21.190Z,11.00
2022-10-18T23:46:50.395Z,10.80
2022-10-18T23:49:20.142Z,10.60
2022-10-18T23:51:51.607Z,10.50
2022-10-18T23:54:20.745Z,10.30
2022-10-18T23:56:50.551Z,10.20
2022-10-18T23:59:21.594Z,10.00
